Time;durP1;ratioP1;P1;durP2;ratioP2;P2;SDS_P1;SDS_P2;PMS_P1;PMS_P2;Temp;Humidity;BMP_temperature;BMP_pressure;BME280_temperature;BME280_humidity;BME280_pressure;Samples;Min_cycle;Max_cycle;Signal;HPM_P1;HPM_P2
2022/12/01 00:04:58;;;;;;;6.95;4.82;;;18.50;68.10;;;;;;10499725;28;20441;-30
2022/12/01 00:15:20;;;;;;;7.93;5.00;;;18.40;67.90;;;;;;10479172;28;20056;-31
2022/12/01 00:20:23;;;;;;;7.13;4.55;;;18.40;67.70;;;;;;10492653;28;20098;-30
2022/12/01 00:25:25;;;;;;;8.35;5.10;;;18.40;67.60;;;;;;10497259;28;20131;-30
2022/12/01 00:30:27;;;;;;;6.18;4.40;;;18.40;67.70;;;;;;10494271;28;20503;-31
2022/12/01 00:35:30;;;;;;;7.27;4.57;;;18.40;67.40;;;;;;10492436;28;20052;-32
2022/12/01 00:40:32;;;;;;;7.15;5.15;;;18.40;67.50;;;;;;10491210;28;20511;-28
2022/12/01 00:45:33;;;;;;;6.53;4.43;;;18.40;67.10;;;;;;10508102;28;20556;-28
2022/12/01 00:50:37;;;;;;;7.18;4.53;;;18.30;67.10;;;;;;10500469;28;20101;-30
2022/12/01 00:55:39;;;;;;;7.50;4.50;;;18.30;67.20;;;;;;10504112;28;20056;-29
2022/12/01 01:00:41;;;;;;;7.07;4.55;;;18.30;67.00;;;;;;10495877;28;20056;-30
2022/12/01 01:05:45;;;;;;;7.95;4.88;;;18.30;66.80;;;;;;10491433;28;20048;-29
2022/12/01 01:10:48;;;;;;;7.35;4.35;;;18.20;67.30;;;;;;10499315;28;20136;-31
2022/12/01 01:15:57;;;;;;;8.93;5.57;;;18.20;66.60;;;;;;10499807;28;20133;-28
2022/12/01 01:21:03;;;;;;;5.32;4.20;;;18.20;66.70;;;;;;10495924;28;20072;-30
2022/12/01 01:26:07;;;;;;;6.28;4.72;;;18.20;66.50;;;;;;10492754;28;20086;-36
2022/12/01 01:31:12;;;;;;;7.05;4.65;;;18.20;66.40;;;;;;10490651;28;20053;-27
2022/12/01 01:36:16;;;;;;;7.43;5.35;;;18.20;66.30;;;;;;10471002;28;20452;-28
2022/12/01 01:41:19;;;;;;;6.78;4.80;;;18.10;66.40;;;;;;10495301;28;20064;-29
2022/12/01 01:46:23;;;;;;;8.93;5.10;;;18.20;66.20;;;;;;10493154;28;20041;-30
2022/12/01 01:51:32;;;;;;;7.45;4.72;;;18.10;66.20;;;;;;10490166;28;20133;-29
2022/12/01 01:56:35;;;;;;;8.32;4.95;;;18.10;66.20;;;;;;10496319;28;20099;-31
2022/12/01 02:01:37;;;;;;;9.02;5.38;;;18.10;66.10;;;;;;10503790;28;20131;-32
2022/12/01 02:06:40;;;;;;;8.27;5.43;;;18.10;66.00;;;;;;10496957;28;20614;-29
2022/12/01 02:11:58;;;;;;;7.30;5.22;;;18.00;66.00;;;;;;10495693;28;21321;-32
2022/12/01 02:17:07;;;;;;;8.20;5.07;;;18.00;65.90;;;;;;10509312;28;20105;-30
2022/12/01 02:22:22;;;;;;;7.97;5.25;;;18.00;65.80;;;;;;10477378;28;20051;-31
2022/12/01 02:27:47;;;;;;;7.57;5.20;;;18.00;65.80;;;;;;10487508;28;20087;-29
2022/12/01 02:33:04;;;;;;;8.50;5.25;;;18.00;65.70;;;;;;10501657;28;20117;-35
2022/12/01 02:38:12;;;;;;;7.40;4.95;;;17.90;65.50;;;;;;10482727;28;20496;-33
2022/12/01 02:43:22;;;;;;;9.93;6.30;;;17.90;65.70;;;;;;10491827;28;20048;-32
2022/12/01 02:48:29;;;;;;;10.00;5.80;;;17.90;65.50;;;;;;10480197;28;20053;-29
2022/12/01 02:53:31;;;;;;;11.23;6.35;;;17.90;65.50;;;;;;10487438;28;20122;-30
2022/12/01 02:58:33;;;;;;;10.20;5.65;;;17.90;65.50;;;;;;10488750;28;20111;-30
2022/12/01 03:04:00;;;;;;;9.30;6.22;;;17.90;65.90;;;;;;10501754;28;20072;-32
2022/12/01 03:09:15;;;;;;;10.57;6.47;;;17.90;65.90;;;;;;10497010;28;20083;-30
2022/12/01 03:14:30;;;;;;;9.70;6.05;;;17.90;65.10;;;;;;10490122;28;20157;-31
2022/12/01 03:19:40;;;;;;;10.90;6.53;;;17.80;65.20;;;;;;10499695;28;20076;-34
2022/12/01 03:24:46;;;;;;;8.68;6.13;;;17.80;65.10;;;;;;10500672;28;20489;-28
2022/12/01 03:29:51;;;;;;;10.52;6.32;;;17.80;65.00;;;;;;10482914;28;20090;-35
2022/12/01 03:34:58;;;;;;;11.77;6.57;;;17.80;64.80;;;;;;10495395;28;20413;-31
2022/12/01 03:40:01;;;;;;;11.68;6.68;;;17.80;64.80;;;;;;10492654;28;20048;-29
2022/12/01 03:45:07;;;;;;;11.10;6.45;;;17.70;64.80;;;;;;10483803;28;20122;-31
2022/12/01 03:50:13;;;;;;;11.85;6.57;;;17.70;64.70;;;;;;10491244;28;20470;-31
2022/12/01 03:55:20;;;;;;;14.00;6.70;;;17.70;64.70;;;;;;10488506;28;20102;-31
2022/12/01 04:00:23;;;;;;;10.15;6.50;;;17.70;64.70;;;;;;10516564;28;20055;-29
2022/12/01 04:05:26;;;;;;;10.20;6.13;;;17.70;64.60;;;;;;10498656;28;20054;-33
2022/12/01 04:10:28;;;;;;;11.77;6.88;;;17.70;64.50;;;;;;10492654;28;20043;-29
2022/12/01 04:15:30;;;;;;;11.07;6.83;;;17.70;64.30;;;;;;10500161;28;20585;-30
2022/12/01 04:20:33;;;;;;;11.03;6.83;;;17.60;64.40;;;;;;10506447;28;20507;-27
2022/12/01 04:25:35;;;;;;;11.80;7.00;;;17.60;64.30;;;;;;10489770;28;20444;-29
2022/12/01 04:30:37;;;;;;;14.03;7.40;;;17.60;64.30;;;;;;10500849;28;20143;-31
2022/12/01 04:35:40;;;;;;;11.80;6.70;;;17.60;64.20;;;;;;10496889;28;20087;-28
2022/12/01 04:40:42;;;;;;;11.80;7.18;;;17.60;64.00;;;;;;10497151;28;20835;-32
2022/12/01 04:45:44;;;;;;;10.90;6.23;;;17.60;64.00;;;;;;10505088;28;20517;-31
2022/12/01 04:50:48;;;;;;;13.65;7.65;;;17.60;64.00;;;;;;10493282;28;20486;-30
2022/12/01 04:55:50;;;;;;;13.95;7.60;;;17.50;63.90;;;;;;10493154;28;20114;-29
2022/12/01 05:00:52;;;;;;;13.23;7.23;;;17.60;63.90;;;;;;10484178;28;20052;-35
2022/12/01 05:06:02;;;;;;;11.80;6.77;;;17.60;63.70;;;;;;10488374;28;20512;-29
2022/12/01 05:11:06;;;;;;;13.32;7.05;;;17.70;63.40;;;;;;10480312;28;20479;-35
2022/12/01 05:16:10;;;;;;;14.55;7.25;;;17.70;63.20;;;;;;10470206;28;20148;-30
2022/12/01 05:21:13;;;;;;;11.75;6.28;;;17.80;63.00;;;;;;10478115;28;20079;-30
2022/12/01 05:26:15;;;;;;;12.07;7.07;;;17.80;63.00;;;;;;10471172;28;20045;-31
2022/12/01 05:31:17;;;;;;;10.63;6.47;;;17.80;63.00;;;;;;10470304;28;20044;-32
2022/12/01 05:36:20;;;;;;;11.32;6.30;;;17.90;63.00;;;;;;10490005;28;20044;-31
2022/12/01 05:41:22;;;;;;;9.80;6.10;;;17.90;63.00;;;;;;10477016;28;20048;-30
2022/12/01 05:46:24;;;;;;;12.23;6.97;;;17.90;63.00;;;;;;10487782;28;20056;-33
2022/12/01 05:51:27;;;;;;;12.07;7.03;;;17.90;63.00;;;;;;10475283;28;20518;-35
2022/12/01 05:56:29;;;;;;;12.18;5.90;;;17.90;63.00;;;;;;10473756;28;20174;-29
2022/12/01 06:01:31;;;;;;;13.23;7.25;;;17.90;63.00;;;;;;10484637;28;20489;-28
2022/12/01 06:06:34;;;;;;;11.37;6.17;;;17.90;62.90;;;;;;10492590;28;20560;-29
2022/12/01 06:11:36;;;;;;;11.15;6.65;;;17.90;62.80;;;;;;10499743;28;20461;-30
2022/12/01 06:16:38;;;;;;;14.23;6.60;;;17.90;63.00;;;;;;10490712;28;20044;-32
2022/12/01 06:21:41;;;;;;;12.07;6.47;;;17.90;63.10;;;;;;10487045;28;20135;-34
2022/12/01 06:26:43;;;;;;;13.25;6.28;;;17.90;62.90;;;;;;10483853;28;20134;-31
2022/12/01 06:31:45;;;;;;;12.10;8.07;;;17.90;62.90;;;;;;10493890;28;20110;-30
2022/12/01 06:36:48;;;;;;;12.63;6.43;;;17.90;62.90;;;;;;10477101;28;20044;-29
2022/12/01 06:41:50;;;;;;;12.48;6.45;;;17.90;62.90;;;;;;10464921;28;20524;-29
2022/12/01 06:46:52;;;;;;;12.30;7.10;;;17.90;62.80;;;;;;10479815;28;20417;-29
2022/12/01 06:51:55;;;;;;;10.57;6.37;;;17.90;62.80;;;;;;10496432;28;20500;-32
2022/12/01 06:56:57;;;;;;;10.95;6.18;;;17.90;62.80;;;;;;10480731;28;20057;-30
2022/12/01 07:15:30;;;;;;;14.63;6.95;;;17.90;62.30;;;;;;10540025;27;20109;-29
2022/12/01 07:20:32;;;;;;;13.77;6.65;;;17.80;63.00;;;;;;10527907;28;20044;-28
2022/12/01 07:25:34;;;;;;;12.10;6.90;;;17.80;63.00;;;;;;10528589;28;20072;-30
2022/12/01 07:30:37;;;;;;;14.82;6.97;;;17.80;63.10;;;;;;10519178;28;20072;-33
2022/12/01 07:35:39;;;;;;;12.25;6.72;;;17.80;62.90;;;;;;10532962;28;20097;-33
2022/12/01 07:40:41;;;;;;;10.18;5.88;;;17.80;63.00;;;;;;10532034;28;20088;-31
2022/12/01 07:45:44;;;;;;;11.97;6.90;;;17.80;63.10;;;;;;10527793;28;20493;-29
2022/12/01 07:50:46;;;;;;;13.05;6.75;;;17.80;63.00;;;;;;10523878;28;20562;-34
2022/12/01 07:55:49;;;;;;;9.93;6.80;;;17.70;63.00;;;;;;10523965;28;20040;-31
2022/12/01 08:00:52;;;;;;;14.70;7.20;;;17.70;63.00;;;;;;10507250;28;21247;-30
2022/12/01 08:05:57;;;;;;;11.88;7.15;;;17.70;63.00;;;;;;10516555;28;20076;-37
2022/12/01 08:11:01;;;;;;;13.52;6.97;;;17.80;63.00;;;;;;10520503;28;20064;-28
2022/12/01 08:16:05;;;;;;;15.02;7.28;;;17.80;63.00;;;;;;10532709;28;20043;-29
2022/12/01 08:21:09;;;;;;;11.55;6.88;;;17.70;63.00;;;;;;10524758;28;20131;-35
2022/12/01 08:26:13;;;;;;;13.75;7.40;;;17.70;63.10;;;;;;10487681;28;20574;-35
2022/12/01 08:31:18;;;;;;;12.23;6.97;;;17.70;63.10;;;;;;10484823;28;20410;-34
2022/12/01 08:36:21;;;;;;;16.92;7.47;;;17.70;63.10;;;;;;10474042;28;20127;-30
2022/12/01 08:41:24;;;;;;;12.48;7.53;;;17.70;63.10;;;;;;10472630;28;20060;-35
2022/12/01 08:46:28;;;;;;;16.10;8.27;;;17.70;63.00;;;;;;10471005;28;20064;-32
2022/12/01 08:51:31;;;;;;;13.82;8.25;;;17.70;62.90;;;;;;10478919;28;20139;-34
2022/12/01 08:56:35;;;;;;;15.32;7.25;;;17.70;62.90;;;;;;10491152;28;20489;-27
2022/12/01 09:01:50;;;;;;;14.68;7.97;;;17.70;62.80;;;;;;10496190;28;20094;-30
2022/12/01 09:06:53;;;;;;;15.10;7.50;;;17.70;62.90;;;;;;10488327;28;20052;-29
2022/12/01 09:11:56;;;;;;;14.30;7.47;;;17.70;62.80;;;;;;10487797;28;20701;-29
2022/12/01 09:16:59;;;;;;;12.32;7.15;;;17.70;62.70;;;;;;10495163;28;20080;-30
2022/12/01 09:22:01;;;;;;;12.07;7.20;;;17.70;62.70;;;;;;10496763;28;20086;-32
2022/12/01 09:27:04;;;;;;;13.27;7.30;;;17.70;62.80;;;;;;10492533;28;20132;-31
2022/12/01 09:32:07;;;;;;;19.77;8.77;;;17.70;62.90;;;;;;10493234;28;20044;-31
2022/12/01 09:37:09;;;;;;;18.85;8.30;;;17.60;63.50;;;;;;10499379;28;20477;-30
2022/12/01 09:42:14;;;;;;;17.57;8.70;;;17.80;63.00;;;;;;10488380;28;20120;-30
2022/12/01 09:47:20;;;;;;;16.65;8.57;;;17.80;63.00;;;;;;10491433;28;20048;-30
2022/12/01 09:52:23;;;;;;;16.80;9.32;;;17.80;62.80;;;;;;10498374;28;20096;-32
2022/12/01 09:57:30;;;;;;;16.67;7.78;;;17.80;63.00;;;;;;10488664;28;20064;-33
2022/12/01 10:02:39;;;;;;;17.05;8.75;;;17.90;62.80;;;;;;10495082;28;20497;-33
2022/12/01 10:07:47;;;;;;;19.65;8.80;;;17.80;62.80;;;;;;10476882;28;20045;-28
2022/12/01 10:12:49;;;;;;;16.33;7.85;;;17.80;62.80;;;;;;10489774;28;20105;-28
2022/12/01 10:18:03;;;;;;;17.38;8.38;;;17.80;62.70;;;;;;10488198;28;20408;-29
2022/12/01 10:23:17;;;;;;;14.30;7.72;;;17.80;62.60;;;;;;10503841;28;20048;-29
2022/12/01 10:28:49;;;;;;;18.70;7.95;;;17.80;62.60;;;;;;10495589;28;20047;-29
2022/12/01 10:34:00;;;;;;;13.55;6.72;;;17.80;62.60;;;;;;10469621;28;20520;-29
2022/12/01 10:39:03;;;;;;;12.80;7.10;;;17.80;62.90;;;;;;10457667;28;20071;-31
2022/12/01 10:44:06;;;;;;;14.63;6.68;;;17.80;63.00;;;;;;10472606;28;20058;-29
2022/12/01 10:49:12;;;;;;;11.60;6.40;;;17.80;63.10;;;;;;10493339;28;20076;-28
2022/12/01 10:54:14;;;;;;;12.57;7.03;;;17.80;63.30;;;;;;10498930;28;20507;-31
2022/12/01 10:59:29;;;;;;;9.53;5.87;;;17.80;63.10;;;;;;10473190;28;20110;-30
2022/12/01 11:04:43;;;;;;;13.48;7.35;;;17.90;64.30;;;;;;10480758;28;20598;-31
2022/12/01 11:09:48;;;;;;;14.63;6.32;;;18.40;61.90;;;;;;10481276;28;20049;-29
2022/12/01 11:14:52;;;;;;;17.05;6.03;;;18.20;62.60;;;;;;10486994;28;20485;-29
2022/12/01 11:19:55;;;;;;;11.45;6.78;;;18.20;62.40;;;;;;10478369;28;20071;-28
2022/12/01 11:25:00;;;;;;;11.38;6.45;;;18.20;62.30;;;;;;10495742;28;20109;-29
2022/12/01 11:30:05;;;;;;;11.02;6.25;;;18.20;62.20;;;;;;10481059;28;20125;-28
2022/12/01 11:35:19;;;;;;;10.57;6.10;;;18.30;62.20;;;;;;10495105;28;20519;-31
2022/12/01 11:40:24;;;;;;;13.25;6.80;;;18.30;62.10;;;;;;10487315;28;20100;-30
2022/12/01 11:45:32;;;;;;;11.80;7.57;;;18.30;62.10;;;;;;10475972;28;20060;-29
2022/12/01 11:50:37;;;;;;;12.48;6.97;;;18.30;62.10;;;;;;10487068;28;20044;-29
2022/12/01 11:55:39;;;;;;;12.30;7.10;;;18.30;62.20;;;;;;10481662;28;20076;-30
2022/12/01 12:00:47;;;;;;;10.50;5.93;;;18.30;62.10;;;;;;10470038;28;20112;-29
2022/12/01 12:05:59;;;;;;;11.35;6.30;;;18.20;62.10;;;;;;10495391;28;20068;-28
2022/12/01 12:11:06;;;;;;;;;;;18.30;62.10;;;;;;10490274;28;20408;-28
2022/12/01 12:16:15;;;;;;;13.05;6.80;;;18.30;62.00;;;;;;10505084;28;19986;-30
2022/12/01 12:21:30;;;;;;;13.07;7.18;;;18.30;61.90;;;;;;10503473;28;20049;-30
2022/12/01 12:26:39;;;;;;;11.20;6.03;;;18.30;61.80;;;;;;10488954;28;20087;-30
2022/12/01 12:31:53;;;;;;;13.38;6.30;;;18.40;61.50;;;;;;10497649;28;20866;-30
2022/12/01 12:37:06;;;;;;;12.23;6.20;;;18.30;61.40;;;;;;10496437;28;20072;-34
2022/12/01 12:42:16;;;;;;;13.32;7.03;;;18.40;61.20;;;;;;10476107;28;20048;-28
2022/12/01 12:47:35;;;;;;;12.80;6.18;;;18.30;61.10;;;;;;10491651;28;20043;-29
2022/12/01 12:52:41;;;;;;;13.02;6.50;;;18.30;61.30;;;;;;10488843;28;20055;-32
2022/12/01 12:57:47;;;;;;;12.20;6.05;;;18.30;61.00;;;;;;10514203;28;20082;-31
2022/12/01 13:02:52;;;;;;;15.68;6.50;;;18.50;60.70;;;;;;10488876;28;20139;-30
2022/12/01 13:08:02;;;;;;;11.55;6.68;;;18.50;61.20;;;;;;10493944;28;20056;-32
2022/12/01 13:13:17;;;;;;;14.10;6.32;;;18.40;60.60;;;;;;10496017;28;20121;-31
2022/12/01 13:18:27;;;;;;;10.88;6.63;;;18.40;60.50;;;;;;10496067;28;20472;-28
2022/12/01 13:23:32;;;;;;;9.73;5.38;;;18.40;60.40;;;;;;10474411;28;20110;-31
2022/12/01 13:28:39;;;;;;;12.18;5.68;;;18.40;60.30;;;;;;10486734;28;20102;-29
2022/12/01 13:33:53;;;;;;;11.38;6.07;;;18.40;60.20;;;;;;10472777;28;20052;-29
2022/12/01 13:39:02;;;;;;;11.70;5.78;;;18.50;60.40;;;;;;10485907;28;20132;-29
2022/12/01 13:44:07;;;;;;;14.88;5.82;;;18.50;60.30;;;;;;10483471;28;20052;-34
2022/12/01 13:49:32;;;;;;;8.90;5.90;;;18.60;60.00;;;;;;10483476;28;20151;-30
2022/12/01 13:54:37;;;;;;;10.02;5.55;;;18.80;60.00;;;;;;10477696;28;20080;-30
2022/12/01 14:00:20;;;;;;;9.98;5.38;;;19.00;59.50;;;;;;10487953;28;20083;-31
2022/12/01 14:05:55;;;;;;;11.85;5.65;;;19.20;59.10;;;;;;10485322;28;20405;-29
2022/12/01 14:11:01;;;;;;;9.45;5.18;;;19.40;58.90;;;;;;10478135;28;20059;-30
2022/12/01 14:16:04;;;;;;;9.27;5.22;;;19.50;58.60;;;;;;10503546;28;20051;-29
2022/12/01 14:21:09;;;;;;;14.15;5.32;;;19.60;58.60;;;;;;10486453;28;20051;-29
2022/12/01 14:26:19;;;;;;;7.65;4.72;;;19.70;58.30;;;;;;10483859;28;20047;-29
2022/12/01 14:31:21;;;;;;;10.27;5.03;;;19.80;58.10;;;;;;10486625;28;20078;-32
2022/12/01 14:36:32;;;;;;;10.32;5.03;;;19.80;58.00;;;;;;10462371;28;20141;-28
2022/12/01 14:41:42;;;;;;;10.13;5.38;;;19.90;57.90;;;;;;10483758;28;20099;-29
2022/12/01 14:46:48;;;;;;;10.55;4.63;;;19.90;57.90;;;;;;10466704;28;20136;-30
2022/12/01 14:51:54;;;;;;;8.68;4.68;;;19.90;57.70;;;;;;10457217;28;20098;-31
2022/12/01 14:57:01;;;;;;;6.65;4.72;;;19.90;57.80;;;;;;10469777;28;20137;-31
2022/12/01 15:02:07;;;;;;;8.35;4.97;;;19.90;57.70;;;;;;10477760;28;20462;-31
2022/12/01 15:07:11;;;;;;;11.63;5.15;;;19.90;57.60;;;;;;10477058;28;20045;-28
2022/12/01 15:12:25;;;;;;;7.95;4.53;;;19.90;57.60;;;;;;10498550;28;20052;-30
2022/12/01 15:17:30;;;;;;;12.82;5.03;;;19.90;57.60;;;;;;10497530;28;20438;-29
2022/12/01 15:22:33;;;;;;;13.15;4.20;;;19.90;57.70;;;;;;10500895;28;20110;-30
2022/12/01 15:27:37;;;;;;;12.88;4.82;;;19.90;58.60;;;;;;10509137;28;20543;-30
2022/12/01 15:32:41;;;;;;;10.93;5.32;;;20.20;57.70;;;;;;10485302;28;20080;-29
2022/12/01 15:37:44;;;;;;;11.93;4.85;;;20.10;57.50;;;;;;10505400;28;20539;-31
2022/12/01 15:43:01;;;;;;;9.30;4.40;;;20.00;57.90;;;;;;10514736;28;20087;-31
2022/12/01 15:48:15;;;;;;;7.93;4.28;;;19.90;58.50;;;;;;10499166;28;20168;-30
2022/12/01 15:53:22;;;;;;;9.38;4.53;;;19.90;58.10;;;;;;10512815;28;20530;-32
2022/12/01 15:58:29;;;;;;;6.60;4.07;;;19.90;58.10;;;;;;10487302;28;20482;-31
2022/12/01 16:03:31;;;;;;;8.77;4.72;;;19.90;58.50;;;;;;10488723;28;20079;-30
2022/12/01 16:08:32;;;;;;;10.05;4.40;;;19.90;58.80;;;;;;10494382;28;20044;-31
2022/12/01 16:13:46;;;;;;;9.50;4.07;;;19.80;58.40;;;;;;10492348;28;20060;-29
2022/12/01 16:18:53;;;;;;;9.48;4.18;;;19.80;58.60;;;;;;10470615;28;20123;-30
2022/12/01 16:24:00;;;;;;;10.27;4.57;;;19.70;58.80;;;;;;10476127;28;20497;-32
2022/12/01 16:29:14;;;;;;;8.13;4.00;;;19.60;58.80;;;;;;10488105;28;20491;-30
2022/12/01 16:34:17;;;;;;;7.22;4.00;;;19.60;58.90;;;;;;10481959;28;20053;-32
2022/12/01 16:39:19;;;;;;;7.00;4.20;;;19.60;58.90;;;;;;10498859;28;20127;-30
2022/12/01 16:44:22;;;;;;;7.80;4.15;;;19.50;58.80;;;;;;10494268;28;20068;-30
2022/12/01 16:49:24;;;;;;;7.38;4.18;;;19.60;58.70;;;;;;10495613;28;22223;-30
2022/12/01 16:54:27;;;;;;;10.27;3.72;;;19.60;58.60;;;;;;10493893;28;20044;-32
2022/12/01 16:59:30;;;;;;;;;;;19.60;58.80;;;;;;10487159;28;20136;-31
2022/12/01 17:04:33;;;;;;;6.82;4.28;;;19.60;58.70;;;;;;10501880;28;20277;-31
2022/12/01 17:09:35;;;;;;;7.72;4.43;;;19.50;58.80;;;;;;10494149;28;20044;-32
2022/12/01 17:14:38;;;;;;;;;;;19.30;59.10;;;;;;10483437;28;20056;-30
2022/12/01 17:19:40;;;;;;;7.03;4.43;;;19.30;59.10;;;;;;10472788;28;20435;-29
2022/12/01 17:24:42;;;;;;;15.80;5.80;;;19.30;59.20;;;;;;10485434;28;20640;-34
2022/12/01 17:29:45;;;;;;;12.18;6.35;;;19.20;59.50;;;;;;10482551;28;20127;-33
2022/12/01 17:34:47;;;;;;;16.52;6.90;;;19.20;59.70;;;;;;10487795;28;20058;-32
2022/12/01 17:39:49;;;;;;;13.63;6.47;;;19.10;59.80;;;;;;10488877;28;20068;-29
2022/12/01 17:44:52;;;;;;;;;;;19.00;60.00;;;;;;10481768;28;20072;-34
2022/12/01 17:49:54;;;;;;;18.50;7.95;;;19.00;60.00;;;;;;10478446;28;20372;-31
2022/12/01 17:54:56;;;;;;;15.65;7.15;;;19.00;59.90;;;;;;10481538;28;20408;-31
2022/12/01 18:00:00;;;;;;;18.67;6.80;;;19.20;59.80;;;;;;10478446;28;20053;-32
2022/12/01 18:05:02;;;;;;;18.50;7.10;;;19.20;59.80;;;;;;10482203;28;20052;-31
2022/12/01 18:10:04;;;;;;;19.40;7.03;;;19.20;59.90;;;;;;10481346;28;20409;-31
2022/12/01 18:15:08;;;;;;;14.85;6.97;;;19.20;60.00;;;;;;10483281;28;20096;-30
2022/12/01 18:20:11;;;;;;;19.35;8.30;;;19.10;60.00;;;;;;10488402;28;20135;-34
2022/12/01 18:25:13;;;;;;;;;;;19.00;60.10;;;;;;10491975;28;20055;-31
2022/12/01 18:30:16;;;;;;;18.98;8.45;;;19.00;60.10;;;;;;10494467;28;19920;-33
2022/12/01 18:35:18;;;;;;;24.58;8.02;;;18.90;60.10;;;;;;10482206;28;20048;-30
2022/12/01 18:40:20;;;;;;;17.90;7.80;;;18.80;60.40;;;;;;10492093;28;20109;-37
2022/12/01 18:45:23;;;;;;;19.75;8.32;;;18.80;60.50;;;;;;10482113;28;20656;-30
2022/12/01 18:50:25;;;;;;;15.68;7.53;;;18.80;60.50;;;;;;10480533;28;20091;-31
2022/12/01 18:55:27;;;;;;;13.68;6.13;;;18.80;60.60;;;;;;10491964;28;20056;-31
2022/12/01 19:00:31;;;;;;;18.23;6.97;;;18.80;60.20;;;;;;10485147;28;20055;-31
2022/12/01 19:05:36;;;;;;;13.77;6.07;;;18.90;60.30;;;;;;10492645;28;20128;-29
2022/12/01 19:10:38;;;;;;;13.82;6.80;;;18.90;60.20;;;;;;10490861;28;20076;-32
2022/12/01 19:15:41;;;;;;;11.98;6.63;;;18.80;60.40;;;;;;10498462;28;20052;-31
2022/12/01 19:20:43;;;;;;;14.73;6.40;;;18.90;60.30;;;;;;10504025;28;20086;-32
2022/12/01 19:25:45;;;;;;;14.95;6.88;;;18.80;60.30;;;;;;10495504;28;20133;-32
2022/12/01 19:30:48;;;;;;;14.60;6.55;;;18.80;60.30;;;;;;10467975;28;20091;-30
2022/12/01 19:35:50;;;;;;;13.85;6.00;;;18.80;60.40;;;;;;10483071;28;20108;-33
2022/12/01 19:40:52;;;;;;;16.92;6.55;;;18.90;60.30;;;;;;10457989;28;20132;-35
2022/12/01 19:45:55;;;;;;;15.88;6.60;;;18.90;60.30;;;;;;10477894;28;20138;-32
2022/12/01 19:50:57;;;;;;;19.20;7.60;;;19.00;60.30;;;;;;10477575;28;20129;-33
2022/12/01 19:56:01;;;;;;;24.27;7.88;;;19.00;60.00;;;;;;10477740;28;20052;-29
2022/12/01 20:01:05;;;;;;;23.50;8.52;;;19.00;60.00;;;;;;10474179;28;20404;-30
2022/12/01 20:06:09;;;;;;;24.38;8.75;;;19.00;60.00;;;;;;10477742;28;20159;-31
2022/12/01 20:11:11;;;;;;;20.25;8.38;;;19.00;60.10;;;;;;10472193;28;20049;-31
2022/12/01 20:16:15;;;;;;;;;;;19.00;60.00;;;;;;10486096;28;20052;-31
2022/12/01 20:21:19;;;;;;;21.55;7.78;;;19.00;60.00;;;;;;10497521;28;19924;-32
2022/12/01 20:26:21;;;;;;;18.17;7.97;;;18.90;60.00;;;;;;10492755;28;20045;-32
2022/12/01 20:31:27;;;;;;;17.98;7.47;;;19.10;59.70;;;;;;10487680;28;20516;-31
2022/12/01 20:36:29;;;;;;;24.75;9.48;;;19.10;59.60;;;;;;10481894;28;20496;-31
2022/12/01 20:41:31;;;;;;;21.10;7.70;;;19.10;59.80;;;;;;10488934;28;20143;-29
2022/12/01 20:46:35;;;;;;;18.65;8.60;;;19.20;59.80;;;;;;10482437;28;20599;-30
2022/12/01 20:51:37;;;;;;;22.92;8.20;;;19.10;59.70;;;;;;10491032;28;20072;-33
2022/12/01 20:56:39;;;;;;;20.63;8.95;;;19.10;59.80;;;;;;10479042;28;20078;-31
2022/12/01 21:01:42;;;;;;;17.30;7.55;;;19.10;59.80;;;;;;10477630;28;20041;-30
2022/12/01 21:06:45;;;;;;;20.63;7.72;;;19.20;59.80;;;;;;10468106;28;20045;-37
2022/12/01 21:17:20;;;;;;;17.93;7.20;;;19.10;59.80;;;;;;10483377;28;20056;-34
2022/12/01 21:22:22;;;;;;;16.30;7.20;;;19.20;59.80;;;;;;10489198;28;20539;-33
2022/12/01 21:27:27;;;;;;;13.60;6.82;;;19.10;59.80;;;;;;10483156;28;20070;-32
2022/12/01 21:32:33;;;;;;;11.80;6.72;;;19.10;59.80;;;;;;10463642;28;20131;-32
2022/12/01 21:37:35;;;;;;;17.70;7.10;;;19.10;59.90;;;;;;10476324;28;20131;-31
2022/12/01 21:42:37;;;;;;;16.20;6.70;;;19.00;59.90;;;;;;10491253;28;20477;-30
2022/12/01 21:47:40;;;;;;;16.42;6.68;;;19.00;60.10;;;;;;10491397;28;20048;-32
2022/12/01 21:52:46;;;;;;;14.20;6.45;;;18.90;60.30;;;;;;10475656;28;20253;-30
2022/12/01 21:57:49;;;;;;;14.70;7.07;;;18.90;60.50;;;;;;10483326;28;20085;-30
2022/12/01 22:02:58;;;;;;;14.40;6.80;;;18.90;60.50;;;;;;10479947;28;20138;-31
2022/12/01 22:08:09;;;;;;;11.90;5.85;;;18.80;60.50;;;;;;10484155;28;20048;-32
2022/12/01 22:13:13;;;;;;;11.30;5.43;;;18.80;60.50;;;;;;10483236;28;20132;-31
2022/12/01 22:18:22;;;;;;;13.05;5.45;;;18.80;60.50;;;;;;10485810;28;20482;-31
2022/12/01 22:23:32;;;;;;;11.85;6.03;;;18.80;60.50;;;;;;10489831;28;20047;-33
2022/12/01 22:28:34;;;;;;;10.35;5.68;;;18.80;60.50;;;;;;10476512;28;20045;-30
2022/12/01 22:33:38;;;;;;;10.73;5.95;;;18.80;60.30;;;;;;10484026;28;20091;-32
2022/12/01 22:38:40;;;;;;;13.90;5.50;;;18.80;60.20;;;;;;10479026;28;20538;-27
2022/12/01 22:43:45;;;;;;;11.35;5.85;;;18.70;60.20;;;;;;10483788;28;21706;-28
2022/12/01 22:48:50;;;;;;;10.02;5.30;;;18.70;60.20;;;;;;10488486;28;20424;-34
2022/12/01 22:53:57;;;;;;;13.57;5.07;;;18.70;60.30;;;;;;10502831;28;20044;-31
2022/12/01 22:58:59;;;;;;;9.70;4.57;;;18.60;60.20;;;;;;10489862;28;20054;-31
2022/12/01 23:04:14;;;;;;;10.60;4.63;;;18.60;60.10;;;;;;10492961;28;20106;-31
2022/12/01 23:09:16;;;;;;;9.65;5.43;;;18.60;60.40;;;;;;10496187;28;20040;-31
2022/12/01 23:14:21;;;;;;;12.48;5.10;;;18.50;60.20;;;;;;10489978;28;20153;-30
2022/12/01 23:19:25;;;;;;;8.55;4.85;;;18.50;60.20;;;;;;10483335;28;20234;-30
2022/12/01 23:24:27;;;;;;;7.43;4.63;;;18.50;60.10;;;;;;10483239;28;20064;-28
2022/12/01 23:29:30;;;;;;;9.38;5.13;;;18.50;60.20;;;;;;10485419;28;20492;-31
2022/12/01 23:34:34;;;;;;;8.00;4.80;;;18.50;60.20;;;;;;10498249;28;20134;-36
2022/12/01 23:39:35;;;;;;;6.85;4.63;;;18.50;60.40;;;;;;10498033;28;20128;-30
2022/12/01 23:44:40;;;;;;;7.30;4.30;;;18.40;60.30;;;;;;10481547;28;20049;-33
2022/12/01 23:49:45;;;;;;;6.82;4.78;;;18.50;60.10;;;;;;10472420;28;20056;-32
2022/12/01 23:54:47;;;;;;;6.63;4.20;;;18.40;60.30;;;;;;10473111;28;20383;-33
2022/12/01 23:59:50;;;;;;;8.02;4.63;;;18.50;60.20;;;;;;10466455;28;20057;-31
